sensor_id;sensor_type;location;lat;lon;timestamp;pressure;altitude;pressure_sealevel;temperature;humidity
12951;BME280;6540;50.858;7.232;2022-12-29T00:01:24;51902.97;;;-142.34;33.73
12951;BME280;6540;50.858;7.232;2022-12-29T00:03:49;51927.16;;;-142.34;33.22
12951;BME280;6540;50.858;7.232;2022-12-29T00:06:15;51878.75;;;-142.34;32.56
12951;BME280;6540;50.858;7.232;2022-12-29T00:08:40;51864.63;;;-142.34;31.82
12951;BME280;6540;50.858;7.232;2022-12-29T00:13:35;51902.97;;;-142.34;32.45
12951;BME280;6540;50.858;7.232;2022-12-29T00:16:19;51874.72;;;-142.34;33.35
12951;BME280;6540;50.858;7.232;2022-12-29T00:18:44;51896.91;;;-142.34;33.67
12951;BME280;6540;50.858;7.232;2022-12-29T00:21:14;51868.66;;;-142.34;32.86
12951;BME280;6540;50.858;7.232;2022-12-29T00:23:58;51874.72;;;-142.34;33.07
12951;BME280;6540;50.858;7.232;2022-12-29T00:26:41;51860.59;;;-142.34;32.43
12951;BME280;6540;50.858;7.232;2022-12-29T00:29:25;51868.66;;;-142.34;32.88
12951;BME280;6540;50.858;7.232;2022-12-29T00:32:10;51902.97;;;-142.34;33.18
12951;BME280;6540;50.858;7.232;2022-12-29T00:34:53;51860.59;;;-142.34;32.25
12951;BME280;6540;50.858;7.232;2022-12-29T00:37:40;51872.69;;;-142.34;32.70
12951;BME280;6540;50.858;7.232;2022-12-29T00:40:25;51902.97;;;-142.34;33.11
12951;BME280;6540;50.858;7.232;2022-12-29T00:43:09;51913.03;;;-142.34;33.68
12951;BME280;6540;50.858;7.232;2022-12-29T00:45:53;51880.78;;;-142.34;32.56
12951;BME280;6540;50.858;7.232;2022-12-29T00:48:21;51854.53;;;-142.34;32.33
12951;BME280;6540;50.858;7.232;2022-12-29T00:51:06;51840.41;;;-142.34;33.49
12951;BME280;6540;50.858;7.232;2022-12-29T00:53:32;51862.63;;;-142.34;32.02
12951;BME280;6540;50.858;7.232;2022-12-29T00:55:57;51878.75;;;-142.34;33.08
12951;BME280;6540;50.858;7.232;2022-12-29T00:58:22;51882.78;;;-142.34;33.02
12951;BME280;6540;50.858;7.232;2022-12-29T01:00:48;51858.56;;;-142.34;31.50
12951;BME280;6540;50.858;7.232;2022-12-29T01:03:13;51866.66;;;-142.34;32.48
12951;BME280;6540;50.858;7.232;2022-12-29T01:05:39;51868.66;;;-142.34;32.70
12951;BME280;6540;50.858;7.232;2022-12-29T01:08:04;51862.63;;;-142.34;31.45
12951;BME280;6540;50.858;7.232;2022-12-29T01:10:30;51882.78;;;-142.34;33.31
12951;BME280;6540;50.858;7.232;2022-12-29T01:12:55;51907.00;;;-142.34;33.14
12951;BME280;6540;50.858;7.232;2022-12-29T01:15:21;51902.97;;;-142.34;34.70
12951;BME280;6540;50.858;7.232;2022-12-29T01:17:46;51862.63;;;-142.34;33.49
12951;BME280;6540;50.858;7.232;2022-12-29T01:20:12;51874.72;;;-142.34;32.49
12951;BME280;6540;50.858;7.232;2022-12-29T01:22:38;51852.53;;;-142.34;34.13
12951;BME280;6540;50.858;7.232;2022-12-29T01:25:05;51858.56;;;-142.34;32.62
12951;BME280;6540;50.858;7.232;2022-12-29T01:27:30;51874.72;;;-142.34;32.60
12951;BME280;6540;50.858;7.232;2022-12-29T01:29:56;51880.78;;;-142.34;32.97
12951;BME280;6540;50.858;7.232;2022-12-29T01:32:21;51872.69;;;-142.34;33.44
12951;BME280;6540;50.858;7.232;2022-12-29T01:34:47;51870.69;;;-142.34;33.07
12951;BME280;6540;50.858;7.232;2022-12-29T01:37:12;51923.13;;;-142.34;33.54
12951;BME280;6540;50.858;7.232;2022-12-29T01:39:38;51878.75;;;-142.34;34.35
12951;BME280;6540;50.858;7.232;2022-12-29T01:42:03;51882.78;;;-142.34;32.33
12951;BME280;6540;50.858;7.232;2022-12-29T01:44:49;51890.84;;;-142.34;32.14
12951;BME280;6540;50.858;7.232;2022-12-29T01:47:21;51882.78;;;-142.34;33.13
12951;BME280;6540;50.858;7.232;2022-12-29T01:49:48;51902.97;;;-142.34;32.18
12951;BME280;6540;50.858;7.232;2022-12-29T01:52:14;51870.69;;;-142.34;33.96
12951;BME280;6540;50.858;7.232;2022-12-29T01:54:43;51870.69;;;-142.34;32.88
12951;BME280;6540;50.858;7.232;2022-12-29T01:57:16;51917.06;;;-142.34;33.05
12951;BME280;6540;50.858;7.232;2022-12-29T01:59:52;51862.63;;;-142.34;31.68
12951;BME280;6540;50.858;7.232;2022-12-29T02:02:19;51913.03;;;-142.34;32.86
12951;BME280;6540;50.858;7.232;2022-12-29T02:04:44;51878.75;;;-142.34;32.16
12951;BME280;6540;50.858;7.232;2022-12-29T02:07:16;51898.94;;;-142.34;32.02
12951;BME280;6540;50.858;7.232;2022-12-29T02:09:43;51872.69;;;-142.34;31.52
12951;BME280;6540;50.858;7.232;2022-12-29T02:12:09;51836.38;;;-142.34;32.07
12951;BME280;6540;50.858;7.232;2022-12-29T02:14:35;51909.00;;;-142.34;30.99
12951;BME280;6540;50.858;7.232;2022-12-29T02:22:29;51866.66;;;-142.34;31.66
12951;BME280;6540;50.858;7.232;2022-12-29T02:35:48;51898.94;;;-142.34;31.39
12951;BME280;6540;50.858;7.232;2022-12-29T02:41:17;51880.78;;;-142.34;32.10
12951;BME280;6540;50.858;7.232;2022-12-29T02:46:21;51874.72;;;-142.34;31.41
12951;BME280;6540;50.858;7.232;2022-12-29T02:49:15;51862.63;;;-142.34;30.08
12951;BME280;6540;50.858;7.232;2022-12-29T02:54:13;51880.78;;;-142.34;30.43
12951;BME280;6540;50.858;7.232;2022-12-29T02:56:59;51810.16;;;-142.34;30.48
12951;BME280;6540;50.858;7.232;2022-12-29T02:59:25;51854.53;;;-142.34;31.53
12951;BME280;6540;50.858;7.232;2022-12-29T03:16:14;51874.72;;;-142.34;32.35
12951;BME280;6540;50.858;7.232;2022-12-29T03:19:08;51834.38;;;-142.34;30.60
12951;BME280;6540;50.858;7.232;2022-12-29T03:21:42;51804.13;;;-142.34;31.38
12951;BME280;6540;50.858;7.232;2022-12-29T03:24:34;51814.19;;;-142.34;32.35
12951;BME280;6540;50.858;7.232;2022-12-29T03:27:06;51858.56;;;-142.34;33.49
12951;BME280;6540;50.858;7.232;2022-12-29T03:29:39;51854.53;;;-142.34;32.37
12951;BME280;6540;50.858;7.232;2022-12-29T03:32:08;51890.84;;;-142.34;32.08
12951;BME280;6540;50.858;7.232;2022-12-29T03:34:35;51842.44;;;-142.34;31.65
12951;BME280;6540;50.858;7.232;2022-12-29T03:37:09;51854.53;;;-142.34;32.58
12951;BME280;6540;50.858;7.232;2022-12-29T03:39:36;51866.66;;;-142.34;32.01
12951;BME280;6540;50.858;7.232;2022-12-29T03:42:05;51858.56;;;-142.34;31.57
12951;BME280;6540;50.858;7.232;2022-12-29T03:44:38;51852.53;;;-142.34;31.50
12951;BME280;6540;50.858;7.232;2022-12-29T03:47:05;51866.66;;;-142.34;32.49
12951;BME280;6540;50.858;7.232;2022-12-29T03:49:31;51858.56;;;-142.34;32.96
12951;BME280;6540;50.858;7.232;2022-12-29T03:51:56;51894.88;;;-142.34;32.91
12951;BME280;6540;50.858;7.232;2022-12-29T03:54:22;51894.88;;;-142.34;31.44
12951;BME280;6540;50.858;7.232;2022-12-29T03:56:47;51874.72;;;-142.34;32.42
12951;BME280;6540;50.858;7.232;2022-12-29T03:59:12;51846.47;;;-142.34;31.16
12951;BME280;6540;50.858;7.232;2022-12-29T04:01:38;51882.78;;;-142.34;33.20
12951;BME280;6540;50.858;7.232;2022-12-29T04:04:03;51852.53;;;-142.34;31.61
12951;BME280;6540;50.858;7.232;2022-12-29T04:06:29;51858.56;;;-142.34;31.81
12951;BME280;6540;50.858;7.232;2022-12-29T04:08:54;51862.63;;;-142.34;31.39
12951;BME280;6540;50.858;7.232;2022-12-29T04:11:21;51854.53;;;-142.34;32.09
12951;BME280;6540;50.858;7.232;2022-12-29T04:13:46;51854.53;;;-142.34;31.26
12951;BME280;6540;50.858;7.232;2022-12-29T04:16:11;51874.72;;;-142.34;32.10
12951;BME280;6540;50.858;7.232;2022-12-29T04:18:37;51854.53;;;-142.34;32.51
12951;BME280;6540;50.858;7.232;2022-12-29T04:21:03;51878.75;;;-142.34;31.83
12951;BME280;6540;50.858;7.232;2022-12-29T04:23:31;51866.66;;;-142.34;31.76
12951;BME280;6540;50.858;7.232;2022-12-29T04:25:57;51856.56;;;-142.34;31.55
12951;BME280;6540;50.858;7.232;2022-12-29T04:28:23;51868.66;;;-142.34;32.08
12951;BME280;6540;50.858;7.232;2022-12-29T04:30:48;51822.25;;;-142.34;31.38
12951;BME280;6540;50.858;7.232;2022-12-29T04:33:14;51860.59;;;-142.34;31.52
12951;BME280;6540;50.858;7.232;2022-12-29T04:35:39;51850.50;;;-142.34;31.02
12951;BME280;6540;50.858;7.232;2022-12-29T04:38:04;51878.75;;;-142.34;31.87
12951;BME280;6540;50.858;7.232;2022-12-29T04:40:30;51878.75;;;-142.34;32.25
12951;BME280;6540;50.858;7.232;2022-12-29T04:42:55;51830.34;;;-142.34;31.62
12951;BME280;6540;50.858;7.232;2022-12-29T04:45:21;51866.66;;;-142.34;30.50
12951;BME280;6540;50.858;7.232;2022-12-29T04:47:46;51854.53;;;-142.34;32.01
12951;BME280;6540;50.858;7.232;2022-12-29T04:50:12;51844.47;;;-142.34;31.23
12951;BME280;6540;50.858;7.232;2022-12-29T04:52:38;51894.88;;;-142.34;32.48
12951;BME280;6540;50.858;7.232;2022-12-29T04:55:04;51814.19;;;-142.34;31.26
12951;BME280;6540;50.858;7.232;2022-12-29T04:57:29;51850.50;;;-142.34;32.23
12951;BME280;6540;50.858;7.232;2022-12-29T04:59:55;51907.00;;;-142.34;31.99
12951;BME280;6540;50.858;7.232;2022-12-29T05:02:20;51882.78;;;-142.34;32.71
12951;BME280;6540;50.858;7.232;2022-12-29T05:04:46;51870.69;;;-142.34;31.57
12951;BME280;6540;50.858;7.232;2022-12-29T05:07:11;51876.72;;;-142.34;31.09
12951;BME280;6540;50.858;7.232;2022-12-29T05:09:37;51858.56;;;-142.34;31.06
12951;BME280;6540;50.858;7.232;2022-12-29T05:12:02;51882.78;;;-142.34;32.11
12951;BME280;6540;50.858;7.232;2022-12-29T05:14:28;51854.53;;;-142.34;31.27
12951;BME280;6540;50.858;7.232;2022-12-29T05:16:53;51850.50;;;-142.34;30.97
12951;BME280;6540;50.858;7.232;2022-12-29T05:19:19;51864.63;;;-142.34;30.50
12951;BME280;6540;50.858;7.232;2022-12-29T05:21:44;51832.34;;;-142.34;30.42
12951;BME280;6540;50.858;7.232;2022-12-29T05:24:10;51816.22;;;-142.34;30.22
12951;BME280;6540;50.858;7.232;2022-12-29T05:26:35;51826.31;;;-142.34;31.31
12951;BME280;6540;50.858;7.232;2022-12-29T05:29:00;51842.44;;;-142.34;30.58
12951;BME280;6540;50.858;7.232;2022-12-29T05:31:29;51856.56;;;-142.34;29.90
12951;BME280;6540;50.858;7.232;2022-12-29T05:33:55;51830.34;;;-142.34;29.50
12951;BME280;6540;50.858;7.232;2022-12-29T05:36:20;51822.25;;;-142.34;30.62
12951;BME280;6540;50.858;7.232;2022-12-29T05:38:46;51850.50;;;-142.34;31.17
12951;BME280;6540;50.858;7.232;2022-12-29T05:41:14;51886.81;;;-142.34;32.02
12951;BME280;6540;50.858;7.232;2022-12-29T05:43:39;51872.69;;;-142.34;31.40
12951;BME280;6540;50.858;7.232;2022-12-29T05:46:05;51866.66;;;-142.34;33.00
12951;BME280;6540;50.858;7.232;2022-12-29T05:48:30;51890.84;;;-142.34;31.22
12951;BME280;6540;50.858;7.232;2022-12-29T05:50:55;51868.66;;;-142.34;32.53
12951;BME280;6540;50.858;7.232;2022-12-29T05:53:21;51866.66;;;-142.34;32.62
12951;BME280;6540;50.858;7.232;2022-12-29T05:55:47;51896.91;;;-142.34;32.22
12951;BME280;6540;50.858;7.232;2022-12-29T05:58:13;51874.72;;;-142.34;32.30
12951;BME280;6540;50.858;7.232;2022-12-29T06:00:39;51862.63;;;-142.34;32.79
12951;BME280;6540;50.858;7.232;2022-12-29T06:03:05;51850.50;;;-142.34;32.86
12951;BME280;6540;50.858;7.232;2022-12-29T06:05:33;51846.47;;;-142.34;33.38
12951;BME280;6540;50.858;7.232;2022-12-29T06:07:59;51854.53;;;-142.34;32.50
12951;BME280;6540;50.858;7.232;2022-12-29T06:10:24;51898.94;;;-142.34;35.28
12951;BME280;6540;50.858;7.232;2022-12-29T06:12:50;51886.81;;;-142.34;34.72
12951;BME280;6540;50.858;7.232;2022-12-29T06:15:17;51878.75;;;-142.34;33.81
12951;BME280;6540;50.858;7.232;2022-12-29T06:17:42;51860.59;;;-142.34;34.76
12951;BME280;6540;50.858;7.232;2022-12-29T06:20:08;51860.59;;;-142.34;35.93
12951;BME280;6540;50.858;7.232;2022-12-29T06:22:37;51917.06;;;-142.34;35.69
12951;BME280;6540;50.858;7.232;2022-12-29T06:25:03;51915.06;;;-142.34;34.27
12951;BME280;6540;50.858;7.232;2022-12-29T06:27:28;51882.78;;;-142.34;34.79
12951;BME280;6540;50.858;7.232;2022-12-29T06:29:54;51921.13;;;-142.34;34.04
12951;BME280;6540;50.858;7.232;2022-12-29T06:32:20;51894.88;;;-142.34;34.13
12951;BME280;6540;50.858;7.232;2022-12-29T06:34:45;51870.69;;;-142.34;33.44
12951;BME280;6540;50.858;7.232;2022-12-29T06:37:11;51935.25;;;-142.34;34.91
12951;BME280;6540;50.858;7.232;2022-12-29T06:39:37;51860.59;;;-142.34;35.25
12951;BME280;6540;50.858;7.232;2022-12-29T06:42:02;51870.69;;;-142.34;35.24
12951;BME280;6540;50.858;7.232;2022-12-29T06:44:28;51890.84;;;-142.34;34.87
12951;BME280;6540;50.858;7.232;2022-12-29T06:46:53;51886.81;;;-142.34;34.11
12951;BME280;6540;50.858;7.232;2022-12-29T06:49:19;51909.00;;;-142.34;35.90
12951;BME280;6540;50.858;7.232;2022-12-29T06:51:48;51892.88;;;-142.34;33.95
12951;BME280;6540;50.858;7.232;2022-12-29T06:54:13;51902.97;;;-142.34;35.14
12951;BME280;6540;50.858;7.232;2022-12-29T06:56:39;51886.81;;;-142.34;35.84
12951;BME280;6540;50.858;7.232;2022-12-29T06:59:04;51913.03;;;-142.34;34.27
12951;BME280;6540;50.858;7.232;2022-12-29T07:01:30;51890.84;;;-142.34;35.45
12951;BME280;6540;50.858;7.232;2022-12-29T07:03:55;51923.13;;;-142.34;36.07
12951;BME280;6540;50.858;7.232;2022-12-29T07:06:21;51902.97;;;-142.34;36.08
12951;BME280;6540;50.858;7.232;2022-12-29T07:08:46;51907.00;;;-142.34;34.73
12951;BME280;6540;50.858;7.232;2022-12-29T07:11:12;51894.88;;;-142.34;36.49
12951;BME280;6540;50.858;7.232;2022-12-29T07:13:37;51909.00;;;-142.34;36.15
12951;BME280;6540;50.858;7.232;2022-12-29T07:16:07;51907.00;;;-142.34;35.10
12951;BME280;6540;50.858;7.232;2022-12-29T07:18:33;51915.06;;;-142.34;35.75
12951;BME280;6540;50.858;7.232;2022-12-29T07:20:58;51902.97;;;-142.34;33.81
12951;BME280;6540;50.858;7.232;2022-12-29T07:23:24;51919.09;;;-142.34;34.70
12951;BME280;6540;50.858;7.232;2022-12-29T07:25:49;51902.97;;;-142.34;33.88
12951;BME280;6540;50.858;7.232;2022-12-29T07:28:14;51886.81;;;-142.34;34.88
12951;BME280;6540;50.858;7.232;2022-12-29T07:30:40;51915.06;;;-142.34;34.14
12951;BME280;6540;50.858;7.232;2022-12-29T07:33:05;51898.94;;;-142.34;33.31
12951;BME280;6540;50.858;7.232;2022-12-29T07:35:31;51870.69;;;-142.34;33.93
12951;BME280;6540;50.858;7.232;2022-12-29T07:37:56;51925.16;;;-142.34;32.84
12951;BME280;6540;50.858;7.232;2022-12-29T07:40:21;51925.16;;;-142.34;33.66
12951;BME280;6540;50.858;7.232;2022-12-29T07:42:47;51888.84;;;-142.34;34.33
12951;BME280;6540;50.858;7.232;2022-12-29T07:45:12;51890.84;;;-142.34;33.36
12951;BME280;6540;50.858;7.232;2022-12-29T07:47:38;51921.13;;;-142.34;32.64
12951;BME280;6540;50.858;7.232;2022-12-29T07:50:04;51886.81;;;-142.34;31.67
12951;BME280;6540;50.858;7.232;2022-12-29T07:52:29;51888.84;;;-142.34;32.91
12951;BME280;6540;50.858;7.232;2022-12-29T07:54:57;51925.16;;;-142.34;32.52
12951;BME280;6540;50.858;7.232;2022-12-29T07:57:23;51874.72;;;-142.34;32.69
12951;BME280;6540;50.858;7.232;2022-12-29T07:59:48;51892.88;;;-142.34;33.37
12951;BME280;6540;50.858;7.232;2022-12-29T08:02:13;51929.19;;;-142.34;32.54
12951;BME280;6540;50.858;7.232;2022-12-29T08:04:39;51927.16;;;-142.34;32.52
12951;BME280;6540;50.858;7.232;2022-12-29T08:07:04;51898.94;;;-142.34;32.65
12951;BME280;6540;50.858;7.232;2022-12-29T08:09:33;51888.84;;;-142.34;32.16
12951;BME280;6540;50.858;7.232;2022-12-29T08:11:58;51904.97;;;-142.34;32.72
12951;BME280;6540;50.858;7.232;2022-12-29T08:14:23;51907.00;;;-142.34;32.38
12951;BME280;6540;50.858;7.232;2022-12-29T08:16:49;51937.25;;;-142.34;32.82
12951;BME280;6540;50.858;7.232;2022-12-29T08:19:14;51870.69;;;-142.34;32.21
12951;BME280;6540;50.858;7.232;2022-12-29T08:21:40;51947.34;;;-142.34;32.23
12951;BME280;6540;50.858;7.232;2022-12-29T08:24:08;51888.84;;;-142.34;32.64
12951;BME280;6540;50.858;7.232;2022-12-29T08:26:33;51955.41;;;-142.34;31.71
12951;BME280;6540;50.858;7.232;2022-12-29T08:28:59;51882.78;;;-142.34;30.90
12951;BME280;6540;50.858;7.232;2022-12-29T08:31:24;51915.06;;;-142.34;31.33
12951;BME280;6540;50.858;7.232;2022-12-29T08:33:50;51878.75;;;-142.34;32.16
12951;BME280;6540;50.858;7.232;2022-12-29T08:36:16;51896.91;;;-142.34;31.69
12951;BME280;6540;50.858;7.232;2022-12-29T08:38:41;51917.06;;;-142.34;32.22
12951;BME280;6540;50.858;7.232;2022-12-29T08:41:09;51907.00;;;-142.34;32.47
12951;BME280;6540;50.858;7.232;2022-12-29T08:43:38;51864.63;;;-142.34;32.62
12951;BME280;6540;50.858;7.232;2022-12-29T08:46:03;51941.28;;;-142.34;32.18
12951;BME280;6540;50.858;7.232;2022-12-29T08:48:29;51925.16;;;-142.34;31.36
12951;BME280;6540;50.858;7.232;2022-12-29T08:50:55;51874.72;;;-142.34;31.48
12951;BME280;6540;50.858;7.232;2022-12-29T08:53:20;51862.63;;;-142.34;30.48
12951;BME280;6540;50.858;7.232;2022-12-29T08:55:46;51892.88;;;-142.34;30.55
12951;BME280;6540;50.858;7.232;2022-12-29T08:58:12;51896.91;;;-142.34;31.29
12951;BME280;6540;50.858;7.232;2022-12-29T09:00:40;51862.63;;;-142.34;31.67
12951;BME280;6540;50.858;7.232;2022-12-29T09:03:06;51890.84;;;-142.34;31.94
12951;BME280;6540;50.858;7.232;2022-12-29T09:05:31;51878.75;;;-142.34;30.71
12951;BME280;6540;50.858;7.232;2022-12-29T09:07:57;51904.97;;;-142.34;30.39
12951;BME280;6540;50.858;7.232;2022-12-29T09:10:22;51915.06;;;-142.34;31.38
12951;BME280;6540;50.858;7.232;2022-12-29T09:12:48;51882.78;;;-142.34;31.60
12951;BME280;6540;50.858;7.232;2022-12-29T09:15:13;51900.94;;;-142.34;31.49
12951;BME280;6540;50.858;7.232;2022-12-29T09:17:38;51870.69;;;-142.34;30.82
12951;BME280;6540;50.858;7.232;2022-12-29T09:20:15;51832.34;;;-142.34;31.28
12951;BME280;6540;50.858;7.232;2022-12-29T09:22:41;51870.69;;;-142.34;30.80
12951;BME280;6540;50.858;7.232;2022-12-29T09:25:07;51888.84;;;-142.34;31.06
12951;BME280;6540;50.858;7.232;2022-12-29T09:27:34;51898.94;;;-142.34;30.65
12951;BME280;6540;50.858;7.232;2022-12-29T09:29:59;51919.09;;;-142.34;31.56
12951;BME280;6540;50.858;7.232;2022-12-29T09:32:25;51848.50;;;-142.34;31.01
12951;BME280;6540;50.858;7.232;2022-12-29T09:34:50;51878.75;;;-142.34;30.95
12951;BME280;6540;50.858;7.232;2022-12-29T09:37:15;51852.53;;;-142.34;31.89
12951;BME280;6540;50.858;7.232;2022-12-29T09:39:41;51870.69;;;-142.34;30.33
12951;BME280;6540;50.858;7.232;2022-12-29T09:42:27;51882.78;;;-142.34;31.89
12951;BME280;6540;50.858;7.232;2022-12-29T09:47:32;51913.03;;;-142.34;32.36
12951;BME280;6540;50.858;7.232;2022-12-29T09:50:23;51874.72;;;-142.34;32.20
12951;BME280;6540;50.858;7.232;2022-12-29T09:55:34;51923.13;;;-142.34;32.34
12951;BME280;6540;50.858;7.232;2022-12-29T09:58:22;51890.84;;;-142.34;32.11
12951;BME280;6540;50.858;7.232;2022-12-29T10:00:54;51907.00;;;-142.34;31.42
12951;BME280;6540;50.858;7.232;2022-12-29T10:03:24;51919.09;;;-142.34;31.11
12951;BME280;6540;50.858;7.232;2022-12-29T10:05:58;51882.78;;;-142.34;31.52
12951;BME280;6540;50.858;7.232;2022-12-29T10:10:57;51882.78;;;-142.34;31.05
12951;BME280;6540;50.858;7.232;2022-12-29T10:13:48;51866.66;;;-142.34;30.37
12951;BME280;6540;50.858;7.232;2022-12-29T10:16:29;51858.56;;;-142.34;29.78
12951;BME280;6540;50.858;7.232;2022-12-29T10:24:16;51878.75;;;-142.34;30.81
12951;BME280;6540;50.858;7.232;2022-12-29T10:26:46;51890.84;;;-142.34;30.65
12951;BME280;6540;50.858;7.232;2022-12-29T10:29:38;51872.69;;;-142.34;31.09
12951;BME280;6540;50.858;7.232;2022-12-29T10:32:13;51880.78;;;-142.34;31.04
12951;BME280;6540;50.858;7.232;2022-12-29T10:34:45;51874.72;;;-142.34;30.53
12951;BME280;6540;50.858;7.232;2022-12-29T10:40:22;51860.59;;;-142.34;30.43
12951;BME280;6540;50.858;7.232;2022-12-29T10:42:53;51866.66;;;-142.34;31.23
12951;BME280;6540;50.858;7.232;2022-12-29T10:45:19;51907.00;;;-142.34;30.87
12951;BME280;6540;50.858;7.232;2022-12-29T10:48:09;51886.81;;;-142.34;30.94
12951;BME280;6540;50.858;7.232;2022-12-29T10:50:36;51874.72;;;-142.34;30.14
12951;BME280;6540;50.858;7.232;2022-12-29T10:53:08;51904.97;;;-142.34;30.65
12951;BME280;6540;50.858;7.232;2022-12-29T10:55:41;51864.63;;;-142.34;31.67
12951;BME280;6540;50.858;7.232;2022-12-29T10:58:11;51888.84;;;-142.34;29.55
12951;BME280;6540;50.858;7.232;2022-12-29T11:00:37;51878.75;;;-142.34;31.75
12951;BME280;6540;50.858;7.232;2022-12-29T11:08:19;51909.00;;;-142.34;30.98
12951;BME280;6540;50.858;7.232;2022-12-29T11:11:09;51911.03;;;-142.34;30.99
12951;BME280;6540;50.858;7.232;2022-12-29T11:16:14;51864.63;;;-142.34;30.16
12951;BME280;6540;50.858;7.232;2022-12-29T11:18:40;51902.97;;;-142.34;30.39
12951;BME280;6540;50.858;7.232;2022-12-29T11:21:33;51880.78;;;-142.34;29.79
12951;BME280;6540;50.858;7.232;2022-12-29T11:24:04;51862.63;;;-142.34;30.51
12951;BME280;6540;50.858;7.232;2022-12-29T11:26:31;51890.84;;;-142.34;29.92
12951;BME280;6540;50.858;7.232;2022-12-29T11:31:46;51913.03;;;-142.34;32.34
12951;BME280;6540;50.858;7.232;2022-12-29T11:36:48;51911.03;;;-142.34;30.84
12951;BME280;6540;50.858;7.232;2022-12-29T11:39:29;51909.00;;;-142.34;30.82
12951;BME280;6540;50.858;7.232;2022-12-29T11:41:55;51915.06;;;-142.34;29.95
12951;BME280;6540;50.858;7.232;2022-12-29T11:44:22;51894.88;;;-142.34;31.35
12951;BME280;6540;50.858;7.232;2022-12-29T11:46:50;51890.84;;;-142.34;30.77
12951;BME280;6540;50.858;7.232;2022-12-29T11:49:24;51896.91;;;-142.34;30.54
12951;BME280;6540;50.858;7.232;2022-12-29T11:51:52;51878.75;;;-142.34;30.96
12951;BME280;6540;50.858;7.232;2022-12-29T11:54:29;51894.88;;;-142.34;30.99
12951;BME280;6540;50.858;7.232;2022-12-29T11:56:55;51902.97;;;-142.34;30.80
12951;BME280;6540;50.858;7.232;2022-12-29T11:59:57;51902.97;;;-142.34;31.49
12951;BME280;6540;50.858;7.232;2022-12-29T12:05:14;51890.84;;;-142.34;31.87
12951;BME280;6540;50.858;7.232;2022-12-29T12:07:47;51915.06;;;-142.34;31.86
12951;BME280;6540;50.858;7.232;2022-12-29T12:10:29;51917.06;;;-142.34;30.63
12951;BME280;6540;50.858;7.232;2022-12-29T12:13:05;51896.91;;;-142.34;31.70
12951;BME280;6540;50.858;7.232;2022-12-29T12:15:40;51902.97;;;-142.34;31.73
12951;BME280;6540;50.858;7.232;2022-12-29T12:18:41;51870.69;;;-142.34;30.66
12951;BME280;6540;50.858;7.232;2022-12-29T12:21:30;51911.03;;;-142.34;30.73
12951;BME280;6540;50.858;7.232;2022-12-29T12:24:11;51890.84;;;-142.34;30.13
12951;BME280;6540;50.858;7.232;2022-12-29T12:32:00;51911.03;;;-142.34;30.67
12951;BME280;6540;50.858;7.232;2022-12-29T12:34:37;51911.03;;;-142.34;30.29
12951;BME280;6540;50.858;7.232;2022-12-29T12:52:13;51927.16;;;-142.34;30.96
12951;BME280;6540;50.858;7.232;2022-12-29T13:00:16;51882.78;;;-142.34;31.74
12951;BME280;6540;50.858;7.232;2022-12-29T13:03:10;51862.63;;;-142.34;30.84
12951;BME280;6540;50.858;7.232;2022-12-29T13:05:42;51902.97;;;-142.34;31.50
12951;BME280;6540;50.858;7.232;2022-12-29T13:21:37;51886.81;;;-142.34;31.87
12951;BME280;6540;50.858;7.232;2022-12-29T13:24:24;51880.78;;;-142.34;30.67
12951;BME280;6540;50.858;7.232;2022-12-29T13:27:04;51898.94;;;-142.34;30.35
12951;BME280;6540;50.858;7.232;2022-12-29T13:30:09;51909.00;;;-142.34;31.62
12951;BME280;6540;50.858;7.232;2022-12-29T13:37:57;51933.22;;;-142.34;30.84
12951;BME280;6540;50.858;7.232;2022-12-29T13:40:26;51907.00;;;-142.34;30.98
12951;BME280;6540;50.858;7.232;2022-12-29T13:42:54;51919.09;;;-142.34;29.72
12951;BME280;6540;50.858;7.232;2022-12-29T13:45:25;51931.19;;;-142.34;30.59
12951;BME280;6540;50.858;7.232;2022-12-29T13:47:59;51898.94;;;-142.34;31.04
12951;BME280;6540;50.858;7.232;2022-12-29T13:50:29;51902.97;;;-142.34;31.03
12951;BME280;6540;50.858;7.232;2022-12-29T13:58:38;51898.94;;;-142.34;29.92
12951;BME280;6540;50.858;7.232;2022-12-29T14:01:35;51917.06;;;-142.34;30.60
12951;BME280;6540;50.858;7.232;2022-12-29T14:04:22;51898.94;;;-142.34;31.38
12951;BME280;6540;50.858;7.232;2022-12-29T14:06:59;51907.00;;;-142.34;30.81
12951;BME280;6540;50.858;7.232;2022-12-29T14:09:42;51919.09;;;-142.34;30.53
12951;BME280;6540;50.858;7.232;2022-12-29T14:12:28;51882.78;;;-142.34;30.82
12951;BME280;6540;50.858;7.232;2022-12-29T14:15:19;51923.13;;;-142.34;32.36
12951;BME280;6540;50.858;7.232;2022-12-29T14:18:01;51919.09;;;-142.34;30.17
12951;BME280;6540;50.858;7.232;2022-12-29T14:21:08;51898.94;;;-142.34;30.48
12951;BME280;6540;50.858;7.232;2022-12-29T14:23:42;51923.13;;;-142.34;30.95
12951;BME280;6540;50.858;7.232;2022-12-29T14:28:43;51896.91;;;-142.34;31.46
12951;BME280;6540;50.858;7.232;2022-12-29T14:33:41;51915.06;;;-142.34;31.82
12951;BME280;6540;50.858;7.232;2022-12-29T14:42:06;51921.13;;;-142.34;31.64
12951;BME280;6540;50.858;7.232;2022-12-29T14:44:58;51882.78;;;-142.34;31.40
12951;BME280;6540;50.858;7.232;2022-12-29T14:47:35;51898.94;;;-142.34;32.93
12951;BME280;6540;50.858;7.232;2022-12-29T14:52:47;51915.06;;;-142.34;33.37
12951;BME280;6540;50.858;7.232;2022-12-29T14:57:56;51925.16;;;-142.34;32.36
12951;BME280;6540;50.858;7.232;2022-12-29T15:00:26;51939.28;;;-142.34;32.81
12951;BME280;6540;50.858;7.232;2022-12-29T15:05:37;51909.00;;;-142.34;32.17
12951;BME280;6540;50.858;7.232;2022-12-29T15:08:06;51894.88;;;-142.34;32.35
12951;BME280;6540;50.858;7.232;2022-12-29T15:10:46;51904.97;;;-142.34;32.98
12951;BME280;6540;50.858;7.232;2022-12-29T15:13:24;51923.13;;;-142.34;32.23
12951;BME280;6540;50.858;7.232;2022-12-29T15:15:57;51925.16;;;-142.34;31.43
12951;BME280;6540;50.858;7.232;2022-12-29T15:18:30;51927.16;;;-142.34;32.21
12951;BME280;6540;50.858;7.232;2022-12-29T15:20:58;51894.88;;;-142.34;32.11
12951;BME280;6540;50.858;7.232;2022-12-29T15:23:24;51890.84;;;-142.34;32.58
12951;BME280;6540;50.858;7.232;2022-12-29T15:25:57;51939.28;;;-142.34;31.32
12951;BME280;6540;50.858;7.232;2022-12-29T15:28:25;51923.13;;;-142.34;30.33